createdAt,value
2023-02-20T00:00:34.049Z,3.00
2023-02-20T00:01:34.042Z,3.10
2023-02-20T00:02:34.092Z,2.80
2023-02-20T00:03:34.087Z,3.20
2023-02-20T00:04:33.998Z,3.80
2023-02-20T00:05:34.006Z,2.70
2023-02-20T00:06:33.979Z,2.70
2023-02-20T00:07:33.988Z,2.90
2023-02-20T00:08:33.972Z,2.50
2023-02-20T00:09:33.956Z,2.30
2023-02-20T00:10:33.931Z,2.40
2023-02-20T00:11:33.978Z,2.90
2023-02-20T00:12:33.907Z,2.70
2023-02-20T00:13:33.902Z,2.40
2023-02-20T00:14:33.920Z,2.50
2023-02-20T00:15:33.878Z,2.30
2023-02-20T00:16:33.913Z,2.60
2023-02-20T00:17:33.873Z,2.00
2023-02-20T00:18:33.847Z,2.40
2023-02-20T00:19:33.836Z,2.10
2023-02-20T00:20:33.850Z,1.90
2023-02-20T00:21:33.865Z,2.10
2023-02-20T00:22:33.809Z,2.30
2023-02-20T00:23:33.796Z,2.30
2023-02-20T00:24:33.866Z,2.20
2023-02-20T00:25:33.774Z,2.50
2023-02-20T00:26:33.789Z,1.80
2023-02-20T00:27:33.755Z,2.20
2023-02-20T00:28:41.628Z,2.60
2023-02-20T00:29:34.632Z,2.70
2023-02-20T00:30:33.734Z,2.00
2023-02-20T00:31:33.785Z,2.00
2023-02-20T00:32:33.688Z,2.10
2023-02-20T00:33:33.931Z,2.00
2023-02-20T00:34:33.673Z,2.50
2023-02-20T00:35:33.678Z,2.90
2023-02-20T00:36:33.674Z,2.40
2023-02-20T00:37:33.629Z,2.10
2023-02-20T00:38:33.640Z,2.20
2023-02-20T00:39:33.628Z,2.20
2023-02-20T00:40:33.665Z,2.00
2023-02-20T00:41:33.612Z,1.90
2023-02-20T00:42:33.613Z,2.70
2023-02-20T00:43:33.613Z,2.30
2023-02-20T00:44:33.626Z,2.00
2023-02-20T00:45:33.645Z,2.40
2023-02-20T00:46:33.776Z,2.20
2023-02-20T00:47:33.593Z,2.70
2023-02-20T00:48:33.612Z,2.50
2023-02-20T00:49:33.561Z,2.70
2023-02-20T00:50:33.507Z,2.60
2023-02-20T00:51:33.527Z,2.20
2023-02-20T00:52:33.567Z,2.60
2023-02-20T00:53:33.523Z,2.20
2023-02-20T00:54:33.515Z,3.60
2023-02-20T00:55:33.485Z,2.60
2023-02-20T00:56:33.438Z,2.10
2023-02-20T00:57:33.462Z,2.50
2023-02-20T00:58:33.457Z,2.30
2023-02-20T00:59:33.428Z,2.70
2023-02-20T01:00:33.424Z,2.50
2023-02-20T01:01:33.514Z,2.40
2023-02-20T01:02:33.500Z,3.20
2023-02-20T01:03:33.377Z,2.90
2023-02-20T01:04:33.397Z,2.90
2023-02-20T01:05:33.542Z,3.20
2023-02-20T01:06:33.366Z,3.40
2023-02-20T01:07:33.406Z,3.30
2023-02-20T01:08:33.327Z,2.70
2023-02-20T01:09:33.351Z,3.40
2023-02-20T01:10:33.297Z,3.10
2023-02-20T01:11:33.272Z,3.80
2023-02-20T01:12:33.322Z,3.30
2023-02-20T01:13:33.268Z,3.50
2023-02-20T01:14:33.275Z,3.20
2023-02-20T01:15:33.381Z,3.70
2023-02-20T01:16:33.419Z,3.90
2023-02-20T01:17:33.218Z,2.80
2023-02-20T01:18:33.247Z,3.70
2023-02-20T01:19:33.276Z,3.90
2023-02-20T01:20:33.337Z,4.20
2023-02-20T01:21:33.179Z,4.40
2023-02-20T01:22:33.165Z,4.10
2023-02-20T01:23:33.181Z,4.50
2023-02-20T01:24:33.163Z,4.50
2023-02-20T01:25:33.134Z,4.60
2023-02-20T01:26:33.127Z,4.80
2023-02-20T01:27:33.102Z,4.40
2023-02-20T01:28:33.084Z,4.30
2023-02-20T01:29:33.137Z,5.30
2023-02-20T01:30:33.156Z,4.90
2023-02-20T01:31:33.157Z,4.60
2023-02-20T01:32:33.071Z,4.40
2023-02-20T01:33:33.036Z,5.20
2023-02-20T01:34:33.058Z,5.20
2023-02-20T01:35:33.009Z,4.80
2023-02-20T01:36:33.002Z,5.00
2023-02-20T01:37:33.006Z,4.90
2023-02-20T01:38:32.976Z,5.20
2023-02-20T01:39:32.993Z,5.00
2023-02-20T01:40:32.977Z,5.10
2023-02-20T01:41:32.944Z,5.60
2023-02-20T01:42:32.948Z,5.40
2023-02-20T01:43:32.919Z,5.30
2023-02-20T01:44:32.921Z,5.40
2023-02-20T01:45:32.935Z,5.80
2023-02-20T01:46:32.948Z,5.50
2023-02-20T01:47:32.882Z,5.90
2023-02-20T01:48:32.876Z,5.40
2023-02-20T01:49:32.893Z,5.40
2023-02-20T01:50:32.881Z,5.60
2023-02-20T01:51:32.880Z,5.20
2023-02-20T01:52:32.850Z,6.30
2023-02-20T01:53:32.828Z,5.20
2023-02-20T01:54:32.812Z,6.30
2023-02-20T01:55:32.809Z,5.30
2023-02-20T01:56:32.794Z,5.40
2023-02-20T01:57:32.802Z,6.00
2023-02-20T01:58:32.772Z,5.40
2023-02-20T01:59:32.768Z,5.60
2023-02-20T02:00:32.802Z,5.60
2023-02-20T02:01:32.800Z,5.90
2023-02-20T02:02:32.755Z,5.80
2023-02-20T02:03:32.738Z,5.50
2023-02-20T02:04:32.734Z,6.20
2023-02-20T02:05:32.708Z,5.80
2023-02-20T02:06:32.672Z,5.30
2023-02-20T02:07:32.704Z,5.70
2023-02-20T02:08:32.700Z,5.60
2023-02-20T02:09:32.680Z,5.70
2023-02-20T02:10:32.635Z,5.60
2023-02-20T02:11:32.619Z,5.00
2023-02-20T02:12:32.630Z,5.00
2023-02-20T02:13:32.596Z,5.50
2023-02-20T02:14:32.589Z,5.30
2023-02-20T02:15:32.576Z,4.90
2023-02-20T02:16:32.560Z,5.10
2023-02-20T02:17:32.594Z,5.20
2023-02-20T02:18:32.551Z,5.40
2023-02-20T02:19:32.579Z,5.10
2023-02-20T02:20:32.522Z,4.90
2023-02-20T02:21:32.530Z,5.00
2023-02-20T02:22:32.519Z,5.30
2023-02-20T02:23:32.554Z,5.30
2023-02-20T02:24:32.482Z,5.00
2023-02-20T02:25:32.461Z,5.20
2023-02-20T02:26:32.469Z,5.40
2023-02-20T02:27:32.465Z,5.40
2023-02-20T02:28:32.446Z,4.80
2023-02-20T02:29:32.430Z,4.60
2023-02-20T02:30:32.479Z,4.40
2023-02-20T02:31:32.557Z,4.70
2023-02-20T02:32:32.411Z,5.10
2023-02-20T02:33:32.415Z,5.30
2023-02-20T02:34:32.384Z,4.70
2023-02-20T02:35:32.363Z,5.10
2023-02-20T02:36:32.342Z,4.90
2023-02-20T02:37:32.342Z,4.30
2023-02-20T02:38:32.352Z,4.60
2023-02-20T02:39:32.318Z,4.20
2023-02-20T02:40:32.311Z,4.50
2023-02-20T02:41:32.295Z,4.50
2023-02-20T02:42:32.287Z,4.40
2023-02-20T02:43:32.291Z,4.10
2023-02-20T02:44:32.302Z,4.20
2023-02-20T02:45:32.305Z,4.50
2023-02-20T02:46:32.255Z,4.10
2023-02-20T02:47:32.230Z,4.10
2023-02-20T02:48:32.245Z,3.90
2023-02-20T02:49:32.223Z,4.30
2023-02-20T02:50:32.233Z,3.40
2023-02-20T02:51:32.197Z,4.10
2023-02-20T02:52:32.175Z,4.00
2023-02-20T02:53:32.193Z,3.70
2023-02-20T02:54:32.156Z,4.10
2023-02-20T02:55:32.169Z,4.10
2023-02-20T02:56:32.202Z,4.00
2023-02-20T02:57:32.171Z,3.80
2023-02-20T02:58:32.383Z,3.90
2023-02-20T02:59:32.290Z,3.70
2023-02-20T03:00:32.096Z,3.90
2023-02-20T03:01:32.094Z,3.30
2023-02-20T03:02:32.181Z,3.90
2023-02-20T03:03:32.082Z,3.90
2023-02-20T03:04:32.062Z,3.90
2023-02-20T03:05:32.036Z,4.20
2023-02-20T03:06:32.041Z,4.10
2023-02-20T03:07:32.223Z,3.80
2023-02-20T03:08:32.012Z,3.90
2023-02-20T03:09:32.021Z,3.80
2023-02-20T03:10:32.228Z,4.10
2023-02-20T03:11:31.967Z,4.50
2023-02-20T03:12:31.962Z,4.00
2023-02-20T03:13:31.987Z,4.30
2023-02-20T03:14:31.925Z,5.30
2023-02-20T03:15:31.945Z,3.80
2023-02-20T03:16:32.061Z,4.10
2023-02-20T03:17:31.918Z,4.10
2023-02-20T03:18:31.932Z,4.40
2023-02-20T03:19:31.920Z,3.90
2023-02-20T03:20:31.894Z,4.40
2023-02-20T03:21:31.885Z,4.20
2023-02-20T03:22:31.866Z,4.20
2023-02-20T03:23:31.875Z,4.60
2023-02-20T03:24:31.920Z,4.00
2023-02-20T03:25:31.866Z,4.70
2023-02-20T03:26:31.860Z,4.80
2023-02-20T03:27:31.820Z,4.20
2023-02-20T03:28:31.844Z,4.20
2023-02-20T03:29:31.819Z,4.90
2023-02-20T03:30:31.818Z,4.80
2023-02-20T03:31:31.915Z,4.90
2023-02-20T03:32:31.822Z,5.20
2023-02-20T03:33:31.749Z,5.40
2023-02-20T03:34:31.759Z,5.60
2023-02-20T03:35:31.731Z,5.40
2023-02-20T03:36:31.713Z,5.50
2023-02-20T03:37:31.748Z,5.10
2023-02-20T03:38:31.708Z,5.90
2023-02-20T03:39:31.758Z,5.90
2023-02-20T03:40:31.676Z,6.00
2023-02-20T03:41:31.723Z,6.00
2023-02-20T03:42:31.685Z,6.20
2023-02-20T03:43:31.647Z,6.70
2023-02-20T03:44:31.636Z,5.90
2023-02-20T03:45:31.652Z,6.80
2023-02-20T03:46:31.630Z,7.10
2023-02-20T03:47:31.604Z,7.30
2023-02-20T03:48:32.040Z,6.80
2023-02-20T03:49:31.556Z,7.10
2023-02-20T03:50:31.585Z,6.90
2023-02-20T03:51:31.570Z,6.90
2023-02-20T03:52:31.530Z,6.80
2023-02-20T03:53:31.528Z,6.90
2023-02-20T03:54:31.574Z,6.70
2023-02-20T03:55:31.488Z,7.50
2023-02-20T03:56:31.493Z,7.30
2023-02-20T03:57:31.485Z,7.90
2023-02-20T03:58:31.459Z,7.10
2023-02-20T03:59:31.464Z,7.30
2023-02-20T04:00:31.429Z,6.80
2023-02-20T04:01:31.482Z,8.00
2023-02-20T04:02:31.447Z,7.30
2023-02-20T04:03:31.410Z,7.30
2023-02-20T04:04:31.383Z,7.40
2023-02-20T04:05:31.390Z,6.90
2023-02-20T04:06:31.397Z,7.30
2023-02-20T04:07:31.374Z,7.40
2023-02-20T04:08:31.370Z,6.70
2023-02-20T04:09:31.358Z,6.80
2023-02-20T04:10:31.374Z,6.30
2023-02-20T04:11:31.369Z,7.10
2023-02-20T04:12:31.334Z,7.00
2023-02-20T04:13:31.309Z,6.70
2023-02-20T04:14:31.289Z,7.10
2023-02-20T04:15:31.285Z,6.50
2023-02-20T04:16:31.395Z,6.20
2023-02-20T04:17:31.279Z,6.30
2023-02-20T04:18:31.251Z,6.30
2023-02-20T04:19:31.376Z,6.90
2023-02-20T04:20:31.227Z,6.50
2023-02-20T04:21:31.387Z,6.70
2023-02-20T04:22:31.207Z,6.80
2023-02-20T04:23:31.212Z,6.30
2023-02-20T04:24:31.174Z,6.60
2023-02-20T04:25:31.194Z,6.40
2023-02-20T04:26:31.189Z,6.50
2023-02-20T04:27:31.172Z,6.80
2023-02-20T04:28:31.162Z,6.90
2023-02-20T04:29:31.118Z,6.10
2023-02-20T04:30:31.261Z,6.90
2023-02-20T04:31:31.148Z,6.90
2023-02-20T04:32:31.145Z,6.20
2023-02-20T04:33:31.079Z,6.20
2023-02-20T04:34:31.080Z,6.60
2023-02-20T04:35:31.091Z,6.30
2023-02-20T04:36:31.065Z,6.00
2023-02-20T04:37:31.187Z,6.80
2023-02-20T04:38:31.047Z,5.90
2023-02-20T04:39:31.069Z,5.90
2023-02-20T04:40:31.054Z,6.20
2023-02-20T04:41:31.022Z,6.50
2023-02-20T04:42:31.015Z,6.00
2023-02-20T04:43:31.043Z,6.30
2023-02-20T04:44:31.011Z,6.60
2023-02-20T04:45:30.976Z,6.30
2023-02-20T04:46:31.030Z,6.30
2023-02-20T04:47:30.970Z,6.40
2023-02-20T04:48:30.943Z,6.40
2023-02-20T04:49:30.928Z,6.20
2023-02-20T04:50:30.955Z,6.40
2023-02-20T04:51:30.925Z,6.40
2023-02-20T04:52:30.930Z,6.40
2023-02-20T04:53:30.966Z,5.80
2023-02-20T04:54:32.143Z,6.10
2023-02-20T04:55:30.863Z,6.00
2023-02-20T04:56:30.893Z,6.00
2023-02-20T04:57:30.903Z,5.80
2023-02-20T04:58:30.861Z,5.80
2023-02-20T04:59:30.841Z,6.30
2023-02-20T05:00:30.812Z,6.20
2023-02-20T05:01:30.896Z,6.20
2023-02-20T05:02:30.866Z,5.90
2023-02-20T05:03:30.783Z,5.50
2023-02-20T05:04:30.804Z,5.30
2023-02-20T05:05:30.763Z,5.60
2023-02-20T05:06:30.735Z,5.80
2023-02-20T05:07:30.730Z,5.80
2023-02-20T05:08:30.778Z,5.30
2023-02-20T05:09:30.742Z,5.60
2023-02-20T05:10:30.689Z,5.30
2023-02-20T05:11:30.723Z,5.50
2023-02-20T05:12:30.698Z,5.70
2023-02-20T05:13:30.674Z,5.40
2023-02-20T05:14:30.661Z,5.20
2023-02-20T05:15:30.754Z,6.10
2023-02-20T05:16:30.731Z,6.00
2023-02-20T05:17:30.635Z,6.10
2023-02-20T05:18:30.610Z,5.40
2023-02-20T05:19:30.654Z,5.70
2023-02-20T05:20:30.620Z,6.40
2023-02-20T05:21:30.580Z,5.50
2023-02-20T05:22:30.575Z,5.80
2023-02-20T05:23:30.594Z,5.80
2023-02-20T05:24:30.547Z,6.00
2023-02-20T05:25:30.548Z,5.00
2023-02-20T05:26:30.574Z,5.80
2023-02-20T05:27:30.537Z,5.90
2023-02-20T05:28:30.501Z,5.60
2023-02-20T05:29:30.506Z,5.60
2023-02-20T05:30:30.539Z,5.40
2023-02-20T05:31:30.554Z,5.50
2023-02-20T05:32:30.494Z,5.90
2023-02-20T05:33:30.464Z,5.30
2023-02-20T05:34:30.448Z,5.60
2023-02-20T05:35:30.449Z,5.40
2023-02-20T05:36:30.445Z,5.90
2023-02-20T05:37:32.074Z,5.90
2023-02-20T05:38:30.392Z,5.70
2023-02-20T05:39:30.444Z,5.40
2023-02-20T05:40:30.427Z,5.90
2023-02-20T05:41:30.362Z,5.90
2023-02-20T05:42:30.414Z,6.20
2023-02-20T05:43:30.386Z,6.30
2023-02-20T05:44:30.339Z,5.70
2023-02-20T05:45:30.335Z,6.10
2023-02-20T05:46:30.335Z,5.80
2023-02-20T05:47:30.612Z,5.60
2023-02-20T05:48:30.311Z,5.90
2023-02-20T05:49:30.331Z,5.90
2023-02-20T05:50:30.302Z,6.10
2023-02-20T05:51:30.284Z,6.00
2023-02-20T05:52:30.263Z,6.00
2023-02-20T05:53:30.328Z,6.80
2023-02-20T05:54:30.235Z,6.20
2023-02-20T05:55:30.242Z,6.90
2023-02-20T05:56:30.224Z,6.50
2023-02-20T05:57:30.183Z,6.40
2023-02-20T05:58:30.186Z,6.80
2023-02-20T05:59:30.336Z,6.70
2023-02-20T06:00:30.200Z,6.50
2023-02-20T06:01:30.143Z,7.10
2023-02-20T06:02:30.161Z,6.70
2023-02-20T06:03:30.234Z,6.40
2023-02-20T06:04:30.172Z,6.90
2023-02-20T06:05:30.118Z,6.90
2023-02-20T06:06:30.185Z,7.10
2023-02-20T06:07:30.131Z,7.40
2023-02-20T06:08:30.099Z,6.10
2023-02-20T06:09:30.083Z,6.70
2023-02-20T06:10:30.013Z,7.00
2023-02-20T06:11:29.996Z,7.60
2023-02-20T06:12:29.985Z,7.00
2023-02-20T06:13:29.972Z,7.10
2023-02-20T06:14:29.975Z,6.30
2023-02-20T06:15:29.956Z,7.20
2023-02-20T06:16:29.981Z,7.40
2023-02-20T06:17:29.941Z,6.80
2023-02-20T06:18:29.940Z,7.10
2023-02-20T06:19:29.911Z,6.10
2023-02-20T06:20:29.935Z,6.30
2023-02-20T06:21:29.896Z,6.30
2023-02-20T06:22:29.869Z,6.00
2023-02-20T06:23:30.095Z,6.20
2023-02-20T06:24:29.905Z,6.60
2023-02-20T06:25:29.974Z,6.60
2023-02-20T06:26:29.879Z,6.50
2023-02-20T06:27:29.864Z,5.80
2023-02-20T06:29:41.857Z,6.20
2023-02-20T06:30:46.581Z,6.70
2023-02-20T06:31:41.621Z,6.30
2023-02-20T06:32:41.509Z,6.60
2023-02-20T06:33:41.518Z,6.80
2023-02-20T06:34:41.493Z,6.50
2023-02-20T06:35:41.435Z,6.50
2023-02-20T06:36:41.453Z,6.40
2023-02-20T06:37:41.568Z,6.50
2023-02-20T06:38:41.470Z,6.70
2023-02-20T06:39:41.461Z,7.00
2023-02-20T06:40:41.463Z,6.40
2023-02-20T06:41:41.382Z,7.20
2023-02-20T06:42:41.406Z,7.70
2023-02-20T06:43:41.463Z,7.20
2023-02-20T06:44:41.370Z,7.30
2023-02-20T06:45:41.389Z,7.20
2023-02-20T06:46:41.329Z,8.00
2023-02-20T06:47:41.324Z,6.90
2023-02-20T06:48:41.371Z,7.30
2023-02-20T06:49:41.328Z,7.50
2023-02-20T06:50:41.322Z,7.80
2023-02-20T06:51:41.283Z,7.10
2023-02-20T06:52:41.335Z,7.40
2023-02-20T06:53:41.253Z,7.40
2023-02-20T06:54:41.249Z,7.40
2023-02-20T06:55:41.252Z,7.30
2023-02-20T06:56:41.242Z,7.30
2023-02-20T06:57:41.207Z,7.40
2023-02-20T06:58:41.310Z,7.40
2023-02-20T06:59:41.231Z,7.60
2023-02-20T07:00:41.223Z,7.90
2023-02-20T07:01:41.261Z,7.80
2023-02-20T07:02:41.177Z,6.80
2023-02-20T07:03:41.140Z,7.90
2023-02-20T07:04:41.146Z,7.40
2023-02-20T07:05:41.117Z,7.30
2023-02-20T07:06:41.103Z,7.60
2023-02-20T07:07:41.097Z,7.20
2023-02-20T07:08:41.144Z,7.30
2023-02-20T07:09:42.972Z,7.00
2023-02-20T07:10:41.047Z,7.10
2023-02-20T07:11:41.086Z,7.10
2023-02-20T07:12:41.047Z,7.00
2023-02-20T07:13:41.136Z,6.90
2023-02-20T07:14:41.018Z,7.20
2023-02-20T07:15:41.037Z,6.90
2023-02-20T07:16:40.989Z,7.00
2023-02-20T07:17:41.011Z,6.10
2023-02-20T07:18:40.966Z,6.90
2023-02-20T07:19:40.961Z,6.40
2023-02-20T07:20:40.955Z,6.70
2023-02-20T07:21:40.934Z,6.50
2023-02-20T07:22:40.961Z,6.90
2023-02-20T07:23:40.914Z,7.40
2023-02-20T07:24:40.911Z,6.90
2023-02-20T07:25:40.912Z,7.30
2023-02-20T07:26:40.874Z,7.00
2023-02-20T07:27:40.904Z,7.00
2023-02-20T07:28:40.894Z,7.10
2023-02-20T07:29:40.852Z,7.50
2023-02-20T07:30:40.945Z,6.70
2023-02-20T07:31:40.931Z,7.10
2023-02-20T07:32:40.844Z,6.90
2023-02-20T07:33:40.837Z,6.40
2023-02-20T07:34:44.621Z,6.80
2023-02-20T07:35:41.787Z,7.10
2023-02-20T07:36:40.778Z,6.90
2023-02-20T07:37:40.779Z,6.90
2023-02-20T07:38:40.775Z,6.40
2023-02-20T07:39:40.756Z,6.90
2023-02-20T07:40:40.767Z,6.70
2023-02-20T07:41:40.722Z,6.60
2023-02-20T07:42:40.737Z,6.50
2023-02-20T07:43:40.690Z,6.60
2023-02-20T07:44:40.786Z,6.20
2023-02-20T07:45:40.688Z,6.40
2023-02-20T07:46:40.663Z,5.90
2023-02-20T07:47:40.701Z,6.30
2023-02-20T07:48:40.645Z,6.20
2023-02-20T07:49:40.621Z,6.20
2023-02-20T07:50:40.629Z,6.40
2023-02-20T07:51:40.687Z,5.80
2023-02-20T07:52:40.670Z,6.00
2023-02-20T07:53:40.647Z,6.00
2023-02-20T07:54:40.622Z,6.60
2023-02-20T07:55:40.580Z,6.20
2023-02-20T07:56:40.562Z,5.90
2023-02-20T07:57:40.535Z,6.10
2023-02-20T07:58:40.544Z,5.70
2023-02-20T07:59:40.530Z,6.30
2023-02-20T08:00:40.500Z,5.70
2023-02-20T08:01:40.574Z,5.60
2023-02-20T08:02:40.510Z,5.70
2023-02-20T08:03:40.492Z,5.60
2023-02-20T08:04:40.480Z,5.60
2023-02-20T08:05:48.991Z,5.60
2023-02-20T08:06:41.454Z,6.00
2023-02-20T08:07:40.440Z,5.10
2023-02-20T08:08:40.444Z,5.70
2023-02-20T08:09:40.434Z,6.50
2023-02-20T08:10:40.537Z,5.70
2023-02-20T08:11:40.446Z,5.20
2023-02-20T08:12:40.372Z,5.10
2023-02-20T08:13:40.399Z,5.20
2023-02-20T08:14:40.357Z,5.10
2023-02-20T08:15:40.343Z,4.90
2023-02-20T08:16:40.429Z,4.90
2023-02-20T08:17:46.487Z,5.00
2023-02-20T08:18:41.371Z,4.60
2023-02-20T08:19:40.340Z,4.70
2023-02-20T08:20:40.325Z,5.30
2023-02-20T08:21:40.318Z,4.40
2023-02-20T08:22:42.289Z,4.70
2023-02-20T08:23:40.298Z,4.30
2023-02-20T08:24:40.548Z,4.50
2023-02-20T08:25:40.263Z,4.30
2023-02-20T08:26:40.238Z,4.20
2023-02-20T08:27:40.221Z,4.30
2023-02-20T08:28:40.211Z,4.30
2023-02-20T08:29:40.198Z,3.80
2023-02-20T08:30:40.333Z,4.50
2023-02-20T08:31:40.290Z,3.80
2023-02-20T08:32:40.216Z,6.50
2023-02-20T08:33:40.156Z,5.80
2023-02-20T08:34:40.149Z,5.20
2023-02-20T08:35:40.166Z,4.10
2023-02-20T08:36:40.127Z,4.30
2023-02-20T08:37:40.152Z,4.70
2023-02-20T08:38:40.121Z,3.70
2023-02-20T08:39:40.096Z,3.40
2023-02-20T08:40:40.134Z,3.80
2023-02-20T08:41:40.122Z,3.90
2023-02-20T08:42:40.136Z,3.10
2023-02-20T08:43:40.049Z,3.40
2023-02-20T08:44:40.044Z,3.70
2023-02-20T08:45:40.097Z,3.40
2023-02-20T08:46:40.035Z,4.60
2023-02-20T08:47:40.039Z,3.40
2023-02-20T08:48:40.020Z,3.30
2023-02-20T08:49:40.004Z,4.10
2023-02-20T08:50:40.043Z,3.20
2023-02-20T08:51:39.956Z,3.30
2023-02-20T08:52:39.989Z,3.40
2023-02-20T08:53:39.946Z,3.30
2023-02-20T08:54:39.957Z,3.70
2023-02-20T08:55:39.920Z,3.80
2023-02-20T08:56:39.933Z,2.90
2023-02-20T08:57:39.914Z,2.90
2023-02-20T08:58:39.928Z,2.50
2023-02-20T08:59:39.893Z,2.70
2023-02-20T09:00:39.932Z,3.80
2023-02-20T09:01:39.929Z,2.70
2023-02-20T09:02:39.909Z,2.40
2023-02-20T09:03:39.837Z,2.40
2023-02-20T09:04:39.820Z,2.10
2023-02-20T09:05:39.844Z,3.10
2023-02-20T09:06:39.799Z,2.90
2023-02-20T09:07:39.822Z,2.00
2023-02-20T09:08:39.802Z,4.30
2023-02-20T09:09:39.773Z,2.30
2023-02-20T09:10:39.773Z,2.40
2023-02-20T09:11:39.745Z,2.30
2023-02-20T09:12:39.889Z,2.60
2023-02-20T09:13:39.720Z,2.30
2023-02-20T09:14:39.729Z,2.60
2023-02-20T09:15:39.780Z,2.20
2023-02-20T09:16:39.720Z,2.40
2023-02-20T09:17:39.704Z,2.40
2023-02-20T09:18:39.682Z,2.90
2023-02-20T09:19:39.729Z,2.90
2023-02-20T09:20:39.719Z,2.10
2023-02-20T09:21:39.652Z,1.50
2023-02-20T09:22:39.661Z,1.70
2023-02-20T09:23:39.624Z,1.90
2023-02-20T09:24:39.608Z,2.40
2023-02-20T09:25:39.640Z,3.40
2023-02-20T09:26:39.622Z,2.00
2023-02-20T09:27:39.623Z,3.70
2023-02-20T09:28:39.616Z,1.90
2023-02-20T09:29:39.583Z,1.50
2023-02-20T09:30:39.705Z,2.70
2023-02-20T09:31:39.669Z,3.20
2023-02-20T09:32:39.653Z,2.20
2023-02-20T09:33:39.560Z,1.90
2023-02-20T09:34:39.540Z,2.20
2023-02-20T09:35:39.529Z,1.60
2023-02-20T09:36:39.514Z,1.50
2023-02-20T09:37:39.490Z,1.50
2023-02-20T09:38:39.501Z,1.80
2023-02-20T09:39:39.470Z,1.70
2023-02-20T09:40:39.453Z,4.50
2023-02-20T09:41:39.466Z,3.10
2023-02-20T09:42:39.430Z,3.20
2023-02-20T09:43:39.436Z,2.50
2023-02-20T09:44:39.445Z,3.20
2023-02-20T09:45:39.429Z,4.10
2023-02-20T09:46:39.407Z,5.50
2023-02-20T09:47:39.399Z,5.10
2023-02-20T09:48:39.389Z,6.50
2023-02-20T09:49:39.864Z,3.70
2023-02-20T09:50:39.348Z,2.40
2023-02-20T09:51:39.330Z,2.50
2023-02-20T09:52:39.370Z,1.40
2023-02-20T09:53:39.305Z,1.60
2023-02-20T09:54:39.358Z,1.70
2023-02-20T09:55:39.290Z,2.80
2023-02-20T09:56:39.281Z,1.10
2023-02-20T09:57:39.255Z,1.70
2023-02-20T09:58:39.262Z,3.90
2023-02-20T09:59:39.267Z,2.10
2023-02-20T10:00:39.291Z,2.50
2023-02-20T10:01:39.227Z,2.30
2023-02-20T10:02:39.318Z,3.60
2023-02-20T10:03:39.204Z,1.90
2023-02-20T10:04:40.040Z,1.70
2023-02-20T10:05:39.175Z,1.70
2023-02-20T10:06:39.175Z,2.20
2023-02-20T10:07:39.141Z,1.40
2023-02-20T10:08:39.217Z,1.70
2023-02-20T10:09:39.132Z,1.60
2023-02-20T10:10:39.258Z,1.20
2023-02-20T10:11:39.121Z,2.20
2023-02-20T10:12:39.183Z,1.30
2023-02-20T10:13:39.089Z,1.40
2023-02-20T10:14:39.107Z,1.20
2023-02-20T10:15:39.069Z,2.20
2023-02-20T10:16:39.143Z,2.20
2023-02-20T10:17:39.059Z,1.20
2023-02-20T10:18:39.035Z,1.20
2023-02-20T10:19:39.086Z,2.00
2023-02-20T10:20:39.019Z,2.00
2023-02-20T10:21:39.020Z,2.30
2023-02-20T10:22:39.014Z,2.20
2023-02-20T10:23:38.993Z,1.50
2023-02-20T10:24:38.976Z,2.50
2023-02-20T10:25:38.987Z,1.30
2023-02-20T10:26:38.983Z,1.90
2023-02-20T10:27:38.950Z,1.50
2023-02-20T10:28:38.956Z,2.90
2023-02-20T10:29:38.938Z,1.20
2023-02-20T10:30:39.022Z,2.30
2023-02-20T10:31:38.998Z,2.00
2023-02-20T10:32:38.905Z,2.00
2023-02-20T10:33:38.895Z,2.20
2023-02-20T10:34:38.863Z,1.40
2023-02-20T10:35:38.893Z,2.60
2023-02-20T10:36:38.899Z,1.50
2023-02-20T10:37:47.443Z,3.10
2023-02-20T10:38:39.875Z,1.90
2023-02-20T10:39:38.839Z,1.40
2023-02-20T10:40:38.816Z,2.40
2023-02-20T10:41:38.820Z,0.90
2023-02-20T10:42:38.806Z,2.30
2023-02-20T10:43:38.801Z,2.50
2023-02-20T10:44:51.080Z,1.50
2023-02-20T10:45:39.783Z,1.10
2023-02-20T10:46:48.538Z,1.50
2023-02-20T10:47:39.830Z,1.70
2023-02-20T10:48:38.737Z,1.20
2023-02-20T10:49:38.713Z,1.70
2023-02-20T10:50:38.727Z,1.10
2023-02-20T10:51:38.688Z,1.40
2023-02-20T10:52:38.757Z,3.70
2023-02-20T10:53:38.664Z,2.00
2023-02-20T10:54:38.766Z,0.80
2023-02-20T10:55:38.749Z,1.00
2023-02-20T10:56:38.684Z,1.80
2023-02-20T10:57:38.672Z,0.80
2023-02-20T10:58:38.654Z,1.60
2023-02-20T10:59:38.637Z,1.10
2023-02-20T11:00:38.639Z,1.20
2023-02-20T11:01:38.728Z,1.30
2023-02-20T11:02:38.659Z,1.40
2023-02-20T11:03:38.836Z,1.30
2023-02-20T11:04:38.690Z,2.70
2023-02-20T11:05:38.536Z,1.60
2023-02-20T11:06:38.544Z,3.60
2023-02-20T11:07:38.519Z,1.60
2023-02-20T11:08:38.519Z,1.40
2023-02-20T11:09:38.504Z,1.70
2023-02-20T11:10:38.478Z,1.30
2023-02-20T11:11:38.480Z,2.30
2023-02-20T11:12:39.319Z,1.40
2023-02-20T11:13:38.799Z,4.20
2023-02-20T11:14:40.887Z,1.70
2023-02-20T11:15:38.676Z,1.30
2023-02-20T11:16:38.685Z,1.80
2023-02-20T11:17:39.508Z,4.20
2023-02-20T11:18:38.460Z,3.30
2023-02-20T11:21:57.698Z,2.50
2023-02-20T11:26:50.819Z,16.60
2023-02-20T11:27:49.812Z,11.40
2023-02-20T11:29:59.305Z,23.00
2023-02-20T11:32:17.439Z,15.60
2023-02-20T11:43:52.501Z,3.30
2023-02-20T11:49:05.713Z,1.70
2023-02-20T11:49:53.039Z,2.10
2023-02-20T11:53:06.808Z,4.30
2023-02-20T11:55:27.521Z,3.60
2023-02-20T11:56:25.716Z,2.80
2023-02-20T11:59:21.848Z,1.90
2023-02-20T12:00:33.839Z,2.10
2023-02-20T12:02:50.933Z,2.60
2023-02-20T12:06:01.316Z,1.90
2023-02-20T12:06:59.087Z,2.60
2023-02-20T12:07:59.215Z,2.30
2023-02-20T12:09:01.107Z,3.10
2023-02-20T12:09:58.975Z,2.00
2023-02-20T12:10:58.858Z,2.90
2023-02-20T12:11:58.704Z,1.20
2023-02-20T12:12:58.757Z,2.50
2023-02-20T12:13:58.767Z,2.70
2023-02-20T12:14:58.693Z,1.50
2023-02-20T12:15:58.731Z,1.40
2023-02-20T12:16:58.771Z,1.80
2023-02-20T12:17:58.690Z,1.60
2023-02-20T12:18:58.658Z,1.80
2023-02-20T12:19:58.602Z,2.20
2023-02-20T12:20:58.717Z,1.40
2023-02-20T12:21:58.631Z,3.30
2023-02-20T12:22:58.698Z,3.40
2023-02-20T12:23:58.613Z,2.50
2023-02-20T12:24:58.739Z,2.40
2023-02-20T12:25:58.622Z,3.40
2023-02-20T12:26:58.611Z,2.00
2023-02-20T12:27:58.523Z,2.80
2023-02-20T12:29:05.614Z,2.50
2023-02-20T12:29:58.461Z,3.70
2023-02-20T12:30:58.462Z,1.70
2023-02-20T12:31:58.408Z,4.40
2023-02-20T12:32:58.400Z,2.10
2023-02-20T12:33:58.377Z,1.50
2023-02-20T12:34:58.365Z,1.70
2023-02-20T12:35:58.360Z,1.90
2023-02-20T12:36:58.359Z,2.50
2023-02-20T12:37:58.327Z,1.00
2023-02-20T12:38:58.329Z,3.20
2023-02-20T12:39:58.312Z,1.40
2023-02-20T12:40:58.331Z,1.30
2023-02-20T12:41:58.286Z,1.30
2023-02-20T12:42:58.265Z,1.40
2023-02-20T12:44:12.407Z,1.40
2023-02-20T12:44:59.252Z,3.00
2023-02-20T12:45:58.232Z,1.30
2023-02-20T12:46:58.286Z,1.50
2023-02-20T12:47:58.207Z,2.80
2023-02-20T12:48:58.207Z,2.70
2023-02-20T12:49:58.226Z,2.30
2023-02-20T12:50:58.264Z,2.50
2023-02-20T12:51:58.260Z,2.00
2023-02-20T12:52:58.179Z,1.90
2023-02-20T12:53:58.235Z,1.30
2023-02-20T12:54:58.212Z,1.50
2023-02-20T12:55:58.152Z,2.40
2023-02-20T12:56:58.152Z,1.30
2023-02-20T12:57:58.120Z,2.90
2023-02-20T12:58:58.097Z,2.80
2023-02-20T12:59:58.113Z,1.50
2023-02-20T13:00:58.186Z,1.70
2023-02-20T13:01:58.093Z,1.30
2023-02-20T13:02:58.078Z,1.70
2023-02-20T13:03:58.111Z,1.30
2023-02-20T13:04:58.165Z,0.80
2023-02-20T13:05:58.132Z,2.40
2023-02-20T13:06:58.030Z,0.90
2023-02-20T13:07:58.028Z,3.20
2023-02-20T13:08:58.013Z,1.60
2023-02-20T13:09:58.060Z,2.40
2023-02-20T13:10:58.065Z,2.20
2023-02-20T13:11:57.967Z,3.60
2023-02-20T13:12:58.018Z,0.80
2023-02-20T13:13:57.933Z,1.70
2023-02-20T13:14:57.909Z,6.30
2023-02-20T13:15:57.986Z,0.80
2023-02-20T13:16:57.937Z,2.70
2023-02-20T13:17:57.899Z,1.00
2023-02-20T13:18:57.893Z,2.60
2023-02-20T13:19:57.869Z,0.80
2023-02-20T13:20:57.920Z,1.40
2023-02-20T13:21:57.837Z,2.40
2023-02-20T13:22:57.897Z,2.60
2023-02-20T13:23:57.845Z,2.10
2023-02-20T13:24:57.805Z,1.60
2023-02-20T13:25:57.855Z,3.30
2023-02-20T13:26:57.810Z,1.70
2023-02-20T13:27:57.777Z,2.30
2023-02-20T13:28:57.778Z,2.90
2023-02-20T13:29:57.772Z,1.80
2023-02-20T13:30:57.765Z,1.20
2023-02-20T13:31:57.916Z,1.20
2023-02-20T13:32:57.720Z,1.30
2023-02-20T13:33:57.757Z,2.10
2023-02-20T13:34:57.692Z,2.40
2023-02-20T13:35:57.702Z,1.20
2023-02-20T13:36:57.688Z,2.20
2023-02-20T13:37:57.668Z,2.50
2023-02-20T13:38:57.682Z,2.20
2023-02-20T13:39:57.648Z,1.90
2023-02-20T13:40:57.654Z,2.50
2023-02-20T13:41:57.633Z,1.70
2023-02-20T13:42:57.635Z,4.30
2023-02-20T13:43:57.668Z,4.20
2023-02-20T13:44:57.628Z,3.90
2023-02-20T13:45:57.631Z,2.90
2023-02-20T13:46:57.598Z,1.00
2023-02-20T13:47:57.572Z,2.60
2023-02-20T13:48:57.579Z,2.40
2023-02-20T13:49:58.788Z,1.80
2023-02-20T13:50:57.569Z,4.80
2023-02-20T13:51:57.539Z,1.10